sensor_id;sensor_type;location;lat;lon;timestamp;P1;durP1;ratioP1;P2;durP2;ratioP2
13423;SDS011;6783;57.758;14.922;2022-10-22T10:32:57;11.85;;;8.32;;
13423;SDS011;6783;57.758;14.922;2022-10-22T10:35:37;10.43;;;7.70;;
13423;SDS011;6783;57.758;14.922;2022-10-22T10:38:16;12.23;;;8.20;;
13423;SDS011;6783;57.758;14.922;2022-10-22T10:40:48;11.23;;;8.63;;
13423;SDS011;6783;57.758;14.922;2022-10-22T10:43:20;8.10;;;7.15;;
13423;SDS011;6783;57.758;14.922;2022-10-22T10:45:53;8.07;;;6.82;;
13423;SDS011;6783;57.758;14.922;2022-10-22T10:48:35;7.30;;;5.78;;
13423;SDS011;6783;57.758;14.922;2022-10-22T10:51:12;7.10;;;6.40;;
13423;SDS011;6783;57.758;14.922;2022-10-22T10:53:51;7.32;;;6.63;;
13423;SDS011;6783;57.758;14.922;2022-10-22T10:56:34;7.13;;;6.40;;
13423;SDS011;6783;57.758;14.922;2022-10-22T10:59:08;8.93;;;6.72;;
13423;SDS011;6783;57.758;14.922;2022-10-22T11:01:45;7.70;;;6.90;;
13423;SDS011;6783;57.758;14.922;2022-10-22T11:04:37;7.28;;;6.35;;
13423;SDS011;6783;57.758;14.922;2022-10-22T11:07:16;17.02;;;15.23;;
13423;SDS011;6783;57.758;14.922;2022-10-22T11:09:46;24.50;;;21.90;;
13423;SDS011;6783;57.758;14.922;2022-10-22T11:12:17;14.13;;;11.20;;
13423;SDS011;6783;57.758;14.922;2022-10-22T11:14:49;10.95;;;8.75;;
13423;SDS011;6783;57.758;14.922;2022-10-22T11:17:21;8.00;;;6.57;;
13423;SDS011;6783;57.758;14.922;2022-10-22T11:19:51;6.05;;;5.45;;
13423;SDS011;6783;57.758;14.922;2022-10-22T11:22:22;6.10;;;5.50;;
13423;SDS011;6783;57.758;14.922;2022-10-22T11:24:52;4.80;;;3.90;;
13423;SDS011;6783;57.758;14.922;2022-10-22T11:27:24;4.28;;;3.88;;
13423;SDS011;6783;57.758;14.922;2022-10-22T11:29:56;4.75;;;3.83;;
13423;SDS011;6783;57.758;14.922;2022-10-22T11:32:26;4.03;;;3.65;;
13423;SDS011;6783;57.758;14.922;2022-10-22T11:34:57;6.32;;;4.00;;
13423;SDS011;6783;57.758;14.922;2022-10-22T11:37:30;4.70;;;4.10;;
13423;SDS011;6783;57.758;14.922;2022-10-22T11:40:00;6.13;;;4.20;;
13423;SDS011;6783;57.758;14.922;2022-10-22T11:42:31;4.38;;;3.70;;
13423;SDS011;6783;57.758;14.922;2022-10-22T11:45:00;5.15;;;3.88;;
13423;SDS011;6783;57.758;14.922;2022-10-22T11:47:31;3.92;;;3.53;;
13423;SDS011;6783;57.758;14.922;2022-10-22T11:50:16;4.38;;;3.97;;
13423;SDS011;6783;57.758;14.922;2022-10-22T11:52:49;4.15;;;3.50;;
13423;SDS011;6783;57.758;14.922;2022-10-22T11:55:33;6.45;;;4.13;;
13423;SDS011;6783;57.758;14.922;2022-10-22T11:58:29;5.00;;;4.28;;
13423;SDS011;6783;57.758;14.922;2022-10-22T12:03:47;4.20;;;3.80;;
13423;SDS011;6783;57.758;14.922;2022-10-22T12:06:18;4.10;;;3.70;;
13423;SDS011;6783;57.758;14.922;2022-10-22T12:08:50;4.43;;;3.72;;
13423;SDS011;6783;57.758;14.922;2022-10-22T12:11:25;4.47;;;3.78;;
13423;SDS011;6783;57.758;14.922;2022-10-22T12:14:00;5.10;;;4.32;;
13423;SDS011;6783;57.758;14.922;2022-10-22T12:16:34;4.78;;;4.00;;
13423;SDS011;6783;57.758;14.922;2022-10-22T12:19:04;4.03;;;3.63;;
13423;SDS011;6783;57.758;14.922;2022-10-22T12:21:41;4.40;;;4.00;;
13423;SDS011;6783;57.758;14.922;2022-10-22T12:24:11;5.07;;;3.90;;
13423;SDS011;6783;57.758;14.922;2022-10-22T12:26:40;3.85;;;3.45;;
13423;SDS011;6783;57.758;14.922;2022-10-22T12:29:11;4.50;;;4.03;;
13423;SDS011;6783;57.758;14.922;2022-10-22T12:31:40;3.80;;;3.40;;
13423;SDS011;6783;57.758;14.922;2022-10-22T12:34:11;4.03;;;3.55;;
13423;SDS011;6783;57.758;14.922;2022-10-22T12:36:41;5.15;;;3.03;;
13423;SDS011;6783;57.758;14.922;2022-10-22T12:39:11;4.47;;;3.45;;
13423;SDS011;6783;57.758;14.922;2022-10-22T12:41:39;3.75;;;3.35;;
13423;SDS011;6783;57.758;14.922;2022-10-22T12:44:09;3.58;;;3.10;;
13423;SDS011;6783;57.758;14.922;2022-10-22T12:46:39;3.60;;;3.22;;
13423;SDS011;6783;57.758;14.922;2022-10-22T12:49:10;4.25;;;3.30;;
13423;SDS011;6783;57.758;14.922;2022-10-22T12:51:42;5.18;;;3.70;;
13423;SDS011;6783;57.758;14.922;2022-10-22T12:54:21;4.10;;;3.58;;
13423;SDS011;6783;57.758;14.922;2022-10-22T12:56:50;4.47;;;3.83;;
13423;SDS011;6783;57.758;14.922;2022-10-22T12:59:19;5.30;;;4.60;;
13423;SDS011;6783;57.758;14.922;2022-10-22T13:01:48;5.22;;;4.45;;
13423;SDS011;6783;57.758;14.922;2022-10-22T13:04:18;5.00;;;4.45;;
13423;SDS011;6783;57.758;14.922;2022-10-22T13:07:05;5.68;;;4.57;;
13423;SDS011;6783;57.758;14.922;2022-10-22T13:09:44;5.72;;;4.90;;
13423;SDS011;6783;57.758;14.922;2022-10-22T13:12:13;6.57;;;5.20;;
13423;SDS011;6783;57.758;14.922;2022-10-22T13:14:43;7.97;;;5.97;;
13423;SDS011;6783;57.758;14.922;2022-10-22T13:17:12;7.50;;;6.00;;
13423;SDS011;6783;57.758;14.922;2022-10-22T13:19:42;6.40;;;5.50;;
13423;SDS011;6783;57.758;14.922;2022-10-22T13:22:25;6.10;;;5.00;;
13423;SDS011;6783;57.758;14.922;2022-10-22T13:24:54;8.13;;;5.65;;
13423;SDS011;6783;57.758;14.922;2022-10-22T13:27:24;7.15;;;5.68;;
13423;SDS011;6783;57.758;14.922;2022-10-22T13:29:52;6.05;;;5.43;;
13423;SDS011;6783;57.758;14.922;2022-10-22T13:32:25;6.00;;;5.40;;
13423;SDS011;6783;57.758;14.922;2022-10-22T13:34:56;6.93;;;5.75;;
13423;SDS011;6783;57.758;14.922;2022-10-22T13:37:29;8.23;;;6.13;;
13423;SDS011;6783;57.758;14.922;2022-10-22T13:39:58;10.43;;;7.18;;
13423;SDS011;6783;57.758;14.922;2022-10-22T13:42:28;8.00;;;6.18;;
13423;SDS011;6783;57.758;14.922;2022-10-22T13:44:57;7.20;;;6.25;;
13423;SDS011;6783;57.758;14.922;2022-10-22T13:47:25;9.00;;;6.75;;
13423;SDS011;6783;57.758;14.922;2022-10-22T13:49:54;8.73;;;6.38;;
13423;SDS011;6783;57.758;14.922;2022-10-22T13:52:37;8.20;;;6.55;;
13423;SDS011;6783;57.758;14.922;2022-10-22T13:55:14;7.20;;;5.85;;
13423;SDS011;6783;57.758;14.922;2022-10-22T13:57:43;7.75;;;6.00;;
13423;SDS011;6783;57.758;14.922;2022-10-22T14:00:15;8.27;;;6.38;;
13423;SDS011;6783;57.758;14.922;2022-10-22T14:02:43;7.45;;;5.93;;
13423;SDS011;6783;57.758;14.922;2022-10-22T14:05:13;9.02;;;6.18;;
13423;SDS011;6783;57.758;14.922;2022-10-22T14:07:42;7.13;;;5.43;;
13423;SDS011;6783;57.758;14.922;2022-10-22T14:10:13;7.57;;;6.20;;
13423;SDS011;6783;57.758;14.922;2022-10-22T14:12:43;7.88;;;6.93;;
13423;SDS011;6783;57.758;14.922;2022-10-22T14:15:12;7.15;;;5.93;;
13423;SDS011;6783;57.758;14.922;2022-10-22T14:17:41;7.22;;;5.68;;
13423;SDS011;6783;57.758;14.922;2022-10-22T14:20:12;8.98;;;5.53;;
13423;SDS011;6783;57.758;14.922;2022-10-22T14:22:44;5.50;;;4.82;;
13423;SDS011;6783;57.758;14.922;2022-10-22T14:25:12;7.43;;;5.20;;
13423;SDS011;6783;57.758;14.922;2022-10-22T14:27:41;7.07;;;5.65;;
13423;SDS011;6783;57.758;14.922;2022-10-22T14:30:09;7.47;;;5.45;;
13423;SDS011;6783;57.758;14.922;2022-10-22T14:32:39;7.28;;;5.53;;
13423;SDS011;6783;57.758;14.922;2022-10-22T14:35:08;7.90;;;7.10;;
13423;SDS011;6783;57.758;14.922;2022-10-22T14:37:37;7.13;;;5.78;;
13423;SDS011;6783;57.758;14.922;2022-10-22T14:40:06;5.30;;;4.80;;
13423;SDS011;6783;57.758;14.922;2022-10-22T14:42:36;6.55;;;5.53;;
13423;SDS011;6783;57.758;14.922;2022-10-22T14:45:05;6.47;;;5.88;;
13423;SDS011;6783;57.758;14.922;2022-10-22T14:47:35;7.45;;;5.50;;
13423;SDS011;6783;57.758;14.922;2022-10-22T14:50:03;5.97;;;4.70;;
13423;SDS011;6783;57.758;14.922;2022-10-22T14:52:32;5.10;;;4.60;;
13423;SDS011;6783;57.758;14.922;2022-10-22T14:54:59;6.18;;;5.13;;
13423;SDS011;6783;57.758;14.922;2022-10-22T14:57:28;7.50;;;5.72;;
13423;SDS011;6783;57.758;14.922;2022-10-22T14:59:55;5.93;;;5.07;;
13423;SDS011;6783;57.758;14.922;2022-10-22T15:02:23;5.50;;;4.88;;
13423;SDS011;6783;57.758;14.922;2022-10-22T15:04:51;9.05;;;5.97;;
13423;SDS011;6783;57.758;14.922;2022-10-22T15:07:18;10.00;;;6.97;;
13423;SDS011;6783;57.758;14.922;2022-10-22T15:09:45;6.05;;;5.40;;
13423;SDS011;6783;57.758;14.922;2022-10-22T15:12:13;11.07;;;7.07;;
13423;SDS011;6783;57.758;14.922;2022-10-22T15:14:41;10.90;;;8.43;;
13423;SDS011;6783;57.758;14.922;2022-10-22T15:17:09;12.38;;;8.57;;
13423;SDS011;6783;57.758;14.922;2022-10-22T15:19:36;14.55;;;10.20;;
13423;SDS011;6783;57.758;14.922;2022-10-22T15:22:04;15.95;;;10.43;;
13423;SDS011;6783;57.758;14.922;2022-10-22T15:24:32;15.15;;;10.73;;
13423;SDS011;6783;57.758;14.922;2022-10-22T15:27:00;17.13;;;10.13;;
13423;SDS011;6783;57.758;14.922;2022-10-22T15:29:27;18.70;;;11.32;;
13423;SDS011;6783;57.758;14.922;2022-10-22T15:31:58;17.38;;;11.95;;
13423;SDS011;6783;57.758;14.922;2022-10-22T15:34:26;27.50;;;14.45;;
13423;SDS011;6783;57.758;14.922;2022-10-22T15:36:55;14.27;;;10.35;;
13423;SDS011;6783;57.758;14.922;2022-10-22T15:39:24;17.35;;;11.68;;
13423;SDS011;6783;57.758;14.922;2022-10-22T15:41:53;14.82;;;10.48;;
13423;SDS011;6783;57.758;14.922;2022-10-22T15:44:22;12.55;;;9.00;;
13423;SDS011;6783;57.758;14.922;2022-10-22T15:46:51;15.95;;;10.60;;
13423;SDS011;6783;57.758;14.922;2022-10-22T15:49:20;13.18;;;9.80;;
13423;SDS011;6783;57.758;14.922;2022-10-22T15:51:48;17.80;;;13.35;;
13423;SDS011;6783;57.758;14.922;2022-10-22T15:54:17;21.95;;;12.52;;
13423;SDS011;6783;57.758;14.922;2022-10-22T15:56:48;19.08;;;12.00;;
13423;SDS011;6783;57.758;14.922;2022-10-22T15:59:15;15.63;;;10.40;;
13423;SDS011;6783;57.758;14.922;2022-10-22T16:01:43;16.08;;;10.55;;
13423;SDS011;6783;57.758;14.922;2022-10-22T16:04:11;12.23;;;9.52;;
13423;SDS011;6783;57.758;14.922;2022-10-22T16:06:41;11.05;;;9.10;;
13423;SDS011;6783;57.758;14.922;2022-10-22T16:09:10;14.13;;;9.55;;
13423;SDS011;6783;57.758;14.922;2022-10-22T16:11:39;14.48;;;9.20;;
13423;SDS011;6783;57.758;14.922;2022-10-22T16:14:07;12.60;;;10.25;;
13423;SDS011;6783;57.758;14.922;2022-10-22T16:16:35;11.88;;;8.35;;
13423;SDS011;6783;57.758;14.922;2022-10-22T16:19:04;16.10;;;13.98;;
13423;SDS011;6783;57.758;14.922;2022-10-22T16:21:31;10.27;;;8.23;;
13423;SDS011;6783;57.758;14.922;2022-10-22T16:24:00;12.27;;;8.00;;
13423;SDS011;6783;57.758;14.922;2022-10-22T16:26:28;13.25;;;8.07;;
13423;SDS011;6783;57.758;14.922;2022-10-22T16:28:55;12.30;;;7.90;;
13423;SDS011;6783;57.758;14.922;2022-10-22T16:31:24;11.73;;;7.78;;
13423;SDS011;6783;57.758;14.922;2022-10-22T16:33:51;15.05;;;9.23;;
13423;SDS011;6783;57.758;14.922;2022-10-22T16:36:19;14.73;;;10.13;;
13423;SDS011;6783;57.758;14.922;2022-10-22T16:38:47;16.75;;;9.55;;
13423;SDS011;6783;57.758;14.922;2022-10-22T16:41:17;18.30;;;11.02;;
13423;SDS011;6783;57.758;14.922;2022-10-22T16:43:46;19.17;;;11.00;;
13423;SDS011;6783;57.758;14.922;2022-10-22T16:46:14;19.95;;;11.82;;
13423;SDS011;6783;57.758;14.922;2022-10-22T16:48:43;17.25;;;10.98;;
13423;SDS011;6783;57.758;14.922;2022-10-22T16:51:13;18.25;;;10.85;;
13423;SDS011;6783;57.758;14.922;2022-10-22T16:53:42;15.60;;;10.95;;
13423;SDS011;6783;57.758;14.922;2022-10-22T16:56:10;15.60;;;10.18;;
13423;SDS011;6783;57.758;14.922;2022-10-22T16:58:42;16.92;;;11.18;;
13423;SDS011;6783;57.758;14.922;2022-10-22T17:01:10;14.80;;;10.82;;
13423;SDS011;6783;57.758;14.922;2022-10-22T17:03:38;15.77;;;10.93;;
13423;SDS011;6783;57.758;14.922;2022-10-22T17:06:06;17.27;;;11.52;;
13423;SDS011;6783;57.758;14.922;2022-10-22T17:08:34;16.95;;;10.98;;
13423;SDS011;6783;57.758;14.922;2022-10-22T17:11:04;17.15;;;11.13;;
13423;SDS011;6783;57.758;14.922;2022-10-22T17:13:32;16.55;;;10.93;;
13423;SDS011;6783;57.758;14.922;2022-10-22T17:16:01;15.32;;;11.07;;
13423;SDS011;6783;57.758;14.922;2022-10-22T17:18:29;16.92;;;11.00;;
13423;SDS011;6783;57.758;14.922;2022-10-22T17:20:57;14.10;;;10.43;;
13423;SDS011;6783;57.758;14.922;2022-10-22T17:23:24;17.08;;;13.30;;
13423;SDS011;6783;57.758;14.922;2022-10-22T17:25:56;18.42;;;11.30;;
13423;SDS011;6783;57.758;14.922;2022-10-22T17:28:25;15.27;;;10.55;;
13423;SDS011;6783;57.758;14.922;2022-10-22T17:31:01;13.93;;;10.13;;
13423;SDS011;6783;57.758;14.922;2022-10-22T17:33:30;14.23;;;9.55;;
13423;SDS011;6783;57.758;14.922;2022-10-22T17:35:57;16.27;;;10.52;;
13423;SDS011;6783;57.758;14.922;2022-10-22T17:38:25;16.55;;;10.82;;
13423;SDS011;6783;57.758;14.922;2022-10-22T17:40:56;15.55;;;10.50;;
13423;SDS011;6783;57.758;14.922;2022-10-22T17:43:24;14.30;;;10.02;;
13423;SDS011;6783;57.758;14.922;2022-10-22T17:45:51;15.52;;;9.80;;
13423;SDS011;6783;57.758;14.922;2022-10-22T17:48:20;15.02;;;9.20;;
13423;SDS011;6783;57.758;14.922;2022-10-22T17:50:47;13.82;;;9.60;;
13423;SDS011;6783;57.758;14.922;2022-10-22T17:53:14;15.65;;;9.73;;
13423;SDS011;6783;57.758;14.922;2022-10-22T17:55:42;14.18;;;9.48;;
13423;SDS011;6783;57.758;14.922;2022-10-22T17:58:09;13.85;;;9.52;;
13423;SDS011;6783;57.758;14.922;2022-10-22T18:00:37;13.25;;;8.93;;
13423;SDS011;6783;57.758;14.922;2022-10-22T18:03:04;15.05;;;8.80;;
13423;SDS011;6783;57.758;14.922;2022-10-22T18:05:33;13.48;;;8.60;;
13423;SDS011;6783;57.758;14.922;2022-10-22T18:08:01;12.20;;;9.60;;
13423;SDS011;6783;57.758;14.922;2022-10-22T18:10:30;12.73;;;8.95;;
13423;SDS011;6783;57.758;14.922;2022-10-22T18:12:57;11.52;;;8.20;;
13423;SDS011;6783;57.758;14.922;2022-10-22T18:15:25;13.18;;;8.27;;
13423;SDS011;6783;57.758;14.922;2022-10-22T18:17:52;9.88;;;7.68;;
13423;SDS011;6783;57.758;14.922;2022-10-22T18:20:20;11.13;;;7.97;;
13423;SDS011;6783;57.758;14.922;2022-10-22T18:22:48;11.05;;;8.23;;
13423;SDS011;6783;57.758;14.922;2022-10-22T18:25:16;11.88;;;8.77;;
13423;SDS011;6783;57.758;14.922;2022-10-22T18:27:43;10.77;;;7.72;;
13423;SDS011;6783;57.758;14.922;2022-10-22T18:30:11;10.27;;;7.93;;
13423;SDS011;6783;57.758;14.922;2022-10-22T18:32:38;9.70;;;7.25;;
13423;SDS011;6783;57.758;14.922;2022-10-22T18:35:06;9.77;;;7.97;;
13423;SDS011;6783;57.758;14.922;2022-10-22T18:37:34;10.75;;;7.32;;
13423;SDS011;6783;57.758;14.922;2022-10-22T18:40:05;8.90;;;6.60;;
13423;SDS011;6783;57.758;14.922;2022-10-22T18:42:34;9.38;;;7.28;;
13423;SDS011;6783;57.758;14.922;2022-10-22T18:45:02;7.90;;;5.93;;
13423;SDS011;6783;57.758;14.922;2022-10-22T18:47:30;7.05;;;5.85;;
13423;SDS011;6783;57.758;14.922;2022-10-22T18:49:57;7.78;;;5.88;;
13423;SDS011;6783;57.758;14.922;2022-10-22T18:52:25;7.03;;;5.35;;
13423;SDS011;6783;57.758;14.922;2022-10-22T18:54:52;8.32;;;5.88;;
13423;SDS011;6783;57.758;14.922;2022-10-22T18:57:21;8.65;;;5.90;;
13423;SDS011;6783;57.758;14.922;2022-10-22T18:59:48;7.10;;;5.72;;
13423;SDS011;6783;57.758;14.922;2022-10-22T19:02:16;6.72;;;5.80;;
13423;SDS011;6783;57.758;14.922;2022-10-22T19:04:48;8.40;;;6.00;;
13423;SDS011;6783;57.758;14.922;2022-10-22T19:07:15;8.48;;;5.75;;
13423;SDS011;6783;57.758;14.922;2022-10-22T19:09:43;7.47;;;5.90;;
13423;SDS011;6783;57.758;14.922;2022-10-22T19:12:11;7.10;;;5.85;;
13423;SDS011;6783;57.758;14.922;2022-10-22T19:14:45;6.03;;;5.07;;
13423;SDS011;6783;57.758;14.922;2022-10-22T19:17:13;6.75;;;5.22;;
13423;SDS011;6783;57.758;14.922;2022-10-22T19:19:42;7.05;;;5.53;;
13423;SDS011;6783;57.758;14.922;2022-10-22T19:22:10;6.97;;;5.57;;
13423;SDS011;6783;57.758;14.922;2022-10-22T19:24:37;8.10;;;6.85;;
13423;SDS011;6783;57.758;14.922;2022-10-22T19:27:05;6.78;;;5.63;;
13423;SDS011;6783;57.758;14.922;2022-10-22T19:29:33;8.13;;;5.43;;
13423;SDS011;6783;57.758;14.922;2022-10-22T19:32:02;6.00;;;5.40;;
13423;SDS011;6783;57.758;14.922;2022-10-22T19:34:30;5.22;;;4.68;;
13423;SDS011;6783;57.758;14.922;2022-10-22T19:36:57;5.22;;;4.40;;
13423;SDS011;6783;57.758;14.922;2022-10-22T19:39:25;4.97;;;4.07;;
13423;SDS011;6783;57.758;14.922;2022-10-22T19:41:52;4.82;;;3.70;;
13423;SDS011;6783;57.758;14.922;2022-10-22T19:44:20;4.65;;;3.85;;
13423;SDS011;6783;57.758;14.922;2022-10-22T19:46:47;5.13;;;3.83;;
13423;SDS011;6783;57.758;14.922;2022-10-22T19:49:16;4.70;;;3.70;;
13423;SDS011;6783;57.758;14.922;2022-10-22T19:51:44;4.13;;;3.72;;
13423;SDS011;6783;57.758;14.922;2022-10-22T19:54:12;4.20;;;3.80;;
13423;SDS011;6783;57.758;14.922;2022-10-22T19:56:43;4.63;;;3.60;;
13423;SDS011;6783;57.758;14.922;2022-10-22T19:59:11;4.07;;;3.40;;
13423;SDS011;6783;57.758;14.922;2022-10-22T20:01:39;3.72;;;3.35;;
13423;SDS011;6783;57.758;14.922;2022-10-22T20:04:08;4.82;;;3.67;;
13423;SDS011;6783;57.758;14.922;2022-10-22T20:06:40;3.13;;;2.50;;
13423;SDS011;6783;57.758;14.922;2022-10-22T20:09:08;3.70;;;2.72;;
13423;SDS011;6783;57.758;14.922;2022-10-22T20:11:36;3.90;;;2.70;;
13423;SDS011;6783;57.758;14.922;2022-10-22T20:14:03;2.85;;;2.55;;
13423;SDS011;6783;57.758;14.922;2022-10-22T20:16:31;2.75;;;2.55;;
13423;SDS011;6783;57.758;14.922;2022-10-22T20:19:00;3.05;;;2.63;;
13423;SDS011;6783;57.758;14.922;2022-10-22T20:21:29;4.57;;;2.42;;
13423;SDS011;6783;57.758;14.922;2022-10-22T20:23:58;2.88;;;2.38;;
13423;SDS011;6783;57.758;14.922;2022-10-22T20:26:26;4.07;;;2.65;;
13423;SDS011;6783;57.758;14.922;2022-10-22T20:28:55;3.38;;;3.08;;
13423;SDS011;6783;57.758;14.922;2022-10-22T20:31:24;4.00;;;2.85;;
13423;SDS011;6783;57.758;14.922;2022-10-22T20:33:54;2.60;;;2.40;;
13423;SDS011;6783;57.758;14.922;2022-10-22T20:36:23;3.22;;;2.92;;
13423;SDS011;6783;57.758;14.922;2022-10-22T20:38:51;3.50;;;2.95;;
13423;SDS011;6783;57.758;14.922;2022-10-22T20:41:24;3.92;;;2.72;;
13423;SDS011;6783;57.758;14.922;2022-10-22T20:43:51;3.95;;;2.60;;
13423;SDS011;6783;57.758;14.922;2022-10-22T20:46:20;2.95;;;2.60;;
13423;SDS011;6783;57.758;14.922;2022-10-22T20:48:49;3.40;;;2.83;;
13423;SDS011;6783;57.758;14.922;2022-10-22T20:51:17;3.17;;;2.60;;
13423;SDS011;6783;57.758;14.922;2022-10-22T20:53:45;3.80;;;3.30;;
13423;SDS011;6783;57.758;14.922;2022-10-22T20:56:12;4.75;;;3.30;;
13423;SDS011;6783;57.758;14.922;2022-10-22T20:58:41;3.55;;;3.25;;
13423;SDS011;6783;57.758;14.922;2022-10-22T21:01:12;4.50;;;3.70;;
13423;SDS011;6783;57.758;14.922;2022-10-22T21:03:45;6.07;;;3.67;;
13423;SDS011;6783;57.758;14.922;2022-10-22T21:06:13;4.97;;;3.60;;
13423;SDS011;6783;57.758;14.922;2022-10-22T21:08:40;4.00;;;3.55;;
13423;SDS011;6783;57.758;14.922;2022-10-22T21:11:08;5.32;;;3.30;;
